createdAt,value
2023-01-09T00:00:59.875Z,35.83
2023-01-09T00:03:31.857Z,34.17
2023-01-09T00:06:03.944Z,34.22
2023-01-09T00:08:35.963Z,33.92
2023-01-09T00:11:08.513Z,34.17
2023-01-09T00:13:40.535Z,36.75
2023-01-09T00:16:12.513Z,36.75
2023-01-09T00:18:44.749Z,34.70
2023-01-09T00:21:17.309Z,34.00
2023-01-09T00:23:49.634Z,34.13
2023-01-09T00:26:22.089Z,34.10
2023-01-09T00:28:54.562Z,35.50
2023-01-09T00:31:26.517Z,35.15
2023-01-09T00:33:58.461Z,34.63
2023-01-09T00:36:30.433Z,35.65
2023-01-09T00:39:02.515Z,32.33
2023-01-09T00:41:46.923Z,37.33
2023-01-09T00:44:23.901Z,33.88
2023-01-09T00:47:03.195Z,35.85
2023-01-09T00:49:37.114Z,35.30
2023-01-09T00:52:11.361Z,34.97
2023-01-09T00:54:44.050Z,33.88
2023-01-09T00:57:16.245Z,33.67
2023-01-09T00:59:48.225Z,32.42
2023-01-09T01:02:20.533Z,33.63
2023-01-09T01:05:11.182Z,32.92
2023-01-09T01:07:43.579Z,31.13
2023-01-09T01:10:20.557Z,30.52
2023-01-09T01:12:53.090Z,32.75
2023-01-09T01:15:26.998Z,32.22
2023-01-09T01:17:58.930Z,31.90
2023-01-09T01:20:30.853Z,32.17
2023-01-09T01:23:02.737Z,31.10
2023-01-09T01:25:37.661Z,31.05
2023-01-09T01:28:10.782Z,30.10
2023-01-09T01:30:43.738Z,30.02
2023-01-09T01:33:15.671Z,32.78
2023-01-09T01:35:47.536Z,33.30
2023-01-09T01:38:19.419Z,30.77
2023-01-09T01:40:55.057Z,30.20
2023-01-09T01:43:26.964Z,31.80
2023-01-09T01:45:59.067Z,33.60
2023-01-09T01:48:32.324Z,29.45
2023-01-09T01:51:06.990Z,31.10
2023-01-09T01:53:45.726Z,31.38
2023-01-09T01:56:26.060Z,28.70
2023-01-09T01:59:01.411Z,27.92
2023-01-09T02:01:34.466Z,29.55
2023-01-09T02:04:06.512Z,32.83
2023-01-09T02:06:39.311Z,33.05
2023-01-09T02:09:13.695Z,32.28
2023-01-09T02:11:47.047Z,29.42
2023-01-09T02:14:22.223Z,32.25
2023-01-09T02:17:26.621Z,30.35
2023-01-09T02:20:20.260Z,31.42
2023-01-09T02:23:13.855Z,30.95
2023-01-09T02:26:21.215Z,30.90
2023-01-09T02:28:58.810Z,32.78
2023-01-09T02:31:57.768Z,32.90
2023-01-09T02:34:41.624Z,31.30
2023-01-09T02:37:41.736Z,29.80
2023-01-09T02:40:21.730Z,30.60
2023-01-09T02:42:55.891Z,31.13
2023-01-09T02:45:27.830Z,32.65
2023-01-09T02:47:59.804Z,29.98
2023-01-09T02:50:51.110Z,31.50
2023-01-09T02:53:51.988Z,29.45
2023-01-09T02:56:45.470Z,35.25
2023-01-09T02:59:54.017Z,31.92
2023-01-09T03:02:42.477Z,33.67
2023-01-09T03:05:34.710Z,32.33
2023-01-09T03:08:16.164Z,36.80
2023-01-09T03:11:09.269Z,33.10
2023-01-09T03:13:50.937Z,31.42
2023-01-09T03:16:33.224Z,37.90
2023-01-09T03:19:10.927Z,36.05
2023-01-09T03:21:45.171Z,31.38
2023-01-09T03:24:17.139Z,35.72
2023-01-09T03:26:49.336Z,36.38
2023-01-09T03:29:22.118Z,33.42
2023-01-09T03:31:54.090Z,36.38
2023-01-09T03:34:25.972Z,34.78
2023-01-09T03:36:57.875Z,32.72
2023-01-09T03:39:29.801Z,35.15
2023-01-09T03:42:01.786Z,33.75
2023-01-09T03:44:33.651Z,37.22
2023-01-09T03:47:05.541Z,39.60
2023-01-09T03:49:37.406Z,40.15
2023-01-09T03:52:09.356Z,36.92
2023-01-09T03:54:41.323Z,37.22
2023-01-09T03:57:13.868Z,37.10
2023-01-09T03:59:45.819Z,36.50
2023-01-09T04:02:18.497Z,32.80
2023-01-09T04:04:50.426Z,37.10
2023-01-09T04:07:22.361Z,36.30
2023-01-09T04:09:54.367Z,35.08
2023-01-09T04:12:26.313Z,34.17
2023-01-09T04:14:58.478Z,35.08
2023-01-09T04:17:30.486Z,31.65
2023-01-09T04:20:02.539Z,33.63
2023-01-09T04:22:34.521Z,32.85
2023-01-09T04:25:06.939Z,33.55
2023-01-09T04:27:39.138Z,30.55
2023-01-09T04:30:11.669Z,34.35
2023-01-09T04:32:43.710Z,35.60
2023-01-09T04:35:15.649Z,30.70
2023-01-09T04:37:47.885Z,28.20
2023-01-09T04:40:20.097Z,29.00
2023-01-09T04:42:52.189Z,30.17
2023-01-09T04:45:24.137Z,30.25
2023-01-09T04:47:56.089Z,26.55
2023-01-09T04:50:28.043Z,30.05
2023-01-09T04:53:00.032Z,29.50
2023-01-09T04:55:32.117Z,26.83
2023-01-09T04:58:04.085Z,27.33
2023-01-09T05:00:36.101Z,26.75
2023-01-09T05:03:07.972Z,26.90
2023-01-09T05:05:39.797Z,27.30
2023-01-09T05:08:11.747Z,25.92
2023-01-09T05:10:43.689Z,25.88
2023-01-09T05:13:15.666Z,25.73
2023-01-09T05:15:47.607Z,26.05
2023-01-09T05:18:19.684Z,25.13
2023-01-09T05:20:51.711Z,26.77
2023-01-09T05:23:23.836Z,23.90
2023-01-09T05:25:55.791Z,25.42
2023-01-09T05:28:27.716Z,24.42
2023-01-09T05:30:59.713Z,25.58
2023-01-09T05:33:31.684Z,26.17
2023-01-09T05:36:03.605Z,25.40
2023-01-09T05:38:35.613Z,24.85
2023-01-09T05:41:07.941Z,24.27
2023-01-09T05:43:39.867Z,24.75
2023-01-09T05:46:11.873Z,24.13
2023-01-09T05:48:44.813Z,26.40
2023-01-09T05:51:16.707Z,25.83
2023-01-09T05:53:48.918Z,23.73
2023-01-09T05:56:20.789Z,24.38
2023-01-09T05:58:52.723Z,23.00
2023-01-09T06:01:24.671Z,22.60
2023-01-09T06:03:56.620Z,24.27
2023-01-09T06:06:29.277Z,24.88
2023-01-09T06:09:01.283Z,23.77
2023-01-09T06:11:36.154Z,24.30
2023-01-09T06:14:11.107Z,24.63
2023-01-09T06:16:43.066Z,24.35
2023-01-09T06:19:15.245Z,26.63
2023-01-09T06:21:47.338Z,23.35
2023-01-09T06:24:19.445Z,24.52
2023-01-09T06:26:51.359Z,25.45
2023-01-09T06:29:23.904Z,24.90
2023-01-09T06:31:55.891Z,25.98
2023-01-09T06:34:27.887Z,23.30
2023-01-09T06:37:00.005Z,25.15
2023-01-09T06:39:32.008Z,26.17
2023-01-09T06:42:04.160Z,27.27
2023-01-09T06:44:37.138Z,25.42
2023-01-09T06:47:09.198Z,25.30
2023-01-09T06:49:41.148Z,26.40
2023-01-09T06:52:13.094Z,25.10
2023-01-09T06:54:45.025Z,26.63
2023-01-09T06:57:16.973Z,24.60
2023-01-09T06:59:48.941Z,25.35
2023-01-09T07:02:22.462Z,27.48
2023-01-09T07:04:54.437Z,26.65
2023-01-09T07:07:26.465Z,25.33
2023-01-09T07:09:58.427Z,25.20
2023-01-09T07:12:33.350Z,24.70
2023-01-09T07:15:05.902Z,24.13
2023-01-09T07:17:37.851Z,24.85
2023-01-09T07:20:10.582Z,25.02
2023-01-09T07:22:42.521Z,23.63
2023-01-09T07:25:14.557Z,24.35
2023-01-09T07:27:46.558Z,23.90
2023-01-09T07:30:18.631Z,25.88
2023-01-09T07:32:50.487Z,25.35
2023-01-09T07:35:22.341Z,26.92
2023-01-09T07:37:54.235Z,24.60
2023-01-09T07:40:27.338Z,24.20
2023-01-09T07:42:59.188Z,22.52
2023-01-09T07:45:31.115Z,23.10
2023-01-09T07:48:02.942Z,24.45
2023-01-09T07:50:35.001Z,22.98
2023-01-09T07:53:06.938Z,24.83
2023-01-09T07:55:39.263Z,24.80
2023-01-09T07:58:11.246Z,24.65
2023-01-09T08:00:43.181Z,24.92
2023-01-09T08:03:15.162Z,25.13
2023-01-09T08:05:47.106Z,25.08
2023-01-09T08:08:19.078Z,23.83
2023-01-09T08:10:51.427Z,22.98
2023-01-09T08:13:23.440Z,23.30
2023-01-09T08:15:55.467Z,23.83
2023-01-09T08:18:27.560Z,23.58
2023-01-09T08:20:59.626Z,24.83
2023-01-09T08:23:31.590Z,23.58
2023-01-09T08:26:04.556Z,23.42
2023-01-09T08:28:36.705Z,22.30
2023-01-09T08:31:08.959Z,23.48
2023-01-09T08:33:40.987Z,23.48
2023-01-09T08:36:13.003Z,22.83
2023-01-09T08:38:44.877Z,24.55
2023-01-09T08:41:35.791Z,28.98
2023-01-09T08:47:07.126Z,23.73
2023-01-09T08:49:39.815Z,26.88
2023-01-09T08:52:12.591Z,25.00
2023-01-09T08:54:44.533Z,29.77
2023-01-09T08:57:16.626Z,24.17
2023-01-09T08:59:48.899Z,22.70
2023-01-09T09:02:20.908Z,23.17
2023-01-09T09:04:53.736Z,21.90
2023-01-09T09:07:28.690Z,22.73
2023-01-09T09:10:00.617Z,21.13
2023-01-09T09:12:32.494Z,22.52
2023-01-09T09:15:13.691Z,23.67
2023-01-09T09:17:45.983Z,23.77
2023-01-09T09:20:17.986Z,24.08
2023-01-09T09:22:50.604Z,25.30
2023-01-09T09:25:23.116Z,24.30
2023-01-09T09:27:56.698Z,21.27
2023-01-09T09:30:28.823Z,22.73
2023-01-09T09:33:03.358Z,25.30
2023-01-09T09:35:35.571Z,22.75
2023-01-09T09:38:07.526Z,23.05
2023-01-09T09:41:39.661Z,21.85
2023-01-09T09:44:53.430Z,23.67
2023-01-09T09:47:56.475Z,23.73
2023-01-09T09:50:46.635Z,22.38
2023-01-09T09:53:31.309Z,24.08
2023-01-09T09:56:05.487Z,21.67
2023-01-09T09:58:41.131Z,23.48
2023-01-09T10:01:19.462Z,23.38
2023-01-09T10:03:56.074Z,24.08
2023-01-09T10:06:50.488Z,21.75
2023-01-09T10:09:48.042Z,21.65
2023-01-09T10:12:19.936Z,20.17
2023-01-09T10:14:51.908Z,22.77
2023-01-09T10:17:55.140Z,22.85
2023-01-09T10:20:49.457Z,24.33
2023-01-09T10:23:26.803Z,25.65
2023-01-09T10:26:10.503Z,24.90
2023-01-09T10:29:20.369Z,25.13
2023-01-09T10:31:58.627Z,25.05
2023-01-09T10:34:48.934Z,24.63
2023-01-09T10:37:36.719Z,25.77
2023-01-09T10:40:26.102Z,30.67
2023-01-09T10:43:09.970Z,32.83
2023-01-09T10:45:52.990Z,27.75
2023-01-09T10:48:32.614Z,27.83
2023-01-09T10:51:19.822Z,26.60
2023-01-09T10:53:54.711Z,24.27
2023-01-09T10:56:30.970Z,23.48
2023-01-09T10:59:03.206Z,25.15
2023-01-09T11:01:39.711Z,26.90
2023-01-09T11:04:34.647Z,28.63
2023-01-09T11:07:18.767Z,28.75
2023-01-09T11:09:58.542Z,27.27
2023-01-09T11:12:32.922Z,25.98
2023-01-09T11:15:16.959Z,26.05
2023-01-09T11:17:51.546Z,28.17
2023-01-09T11:20:23.509Z,27.27
2023-01-09T11:22:58.210Z,26.98
2023-01-09T11:25:30.172Z,28.58
2023-01-09T11:28:02.102Z,26.63
2023-01-09T11:30:38.187Z,31.05
2023-01-09T11:33:16.309Z,28.08
2023-01-09T11:35:58.228Z,28.48
2023-01-09T11:38:33.665Z,30.85
2023-01-09T11:41:07.094Z,29.85
2023-01-09T11:43:40.358Z,30.15
2023-01-09T11:46:41.904Z,28.73
2023-01-09T11:49:22.952Z,87.93
2023-01-09T11:52:06.109Z,79.10
2023-01-09T11:54:43.471Z,75.10
2023-01-09T11:57:16.061Z,52.90
2023-01-09T11:59:48.067Z,43.55
2023-01-09T12:02:41.563Z,38.78
2023-01-09T12:05:47.320Z,39.15
2023-01-09T12:08:29.126Z,36.78
2023-01-09T12:11:25.597Z,38.20
2023-01-09T12:14:24.716Z,36.40
2023-01-09T12:17:17.961Z,34.38
2023-01-09T12:20:14.357Z,31.88
2023-01-09T12:23:08.015Z,32.70
2023-01-09T12:26:04.854Z,29.35
2023-01-09T12:28:56.492Z,35.00
2023-01-09T12:31:50.174Z,34.92
2023-01-09T12:34:32.668Z,30.80
2023-01-09T12:37:18.404Z,32.00
2023-01-09T12:40:22.214Z,27.77
2023-01-09T12:43:12.873Z,29.55
2023-01-09T12:45:53.808Z,28.70
2023-01-09T12:48:59.781Z,31.27
2023-01-09T12:51:35.744Z,30.35
2023-01-09T12:54:13.432Z,33.22
2023-01-09T12:57:03.396Z,31.42
2023-01-09T12:59:57.454Z,31.03
2023-01-09T13:02:39.458Z,31.38
2023-01-09T13:05:18.738Z,33.65
2023-01-09T13:08:29.737Z,36.15
2023-01-09T13:14:14.706Z,31.27
2023-01-09T13:16:53.884Z,31.10
2023-01-09T13:19:34.149Z,31.42
2023-01-09T13:22:07.955Z,31.33
2023-01-09T13:24:58.531Z,30.80
2023-01-09T13:27:39.406Z,32.38
2023-01-09T13:33:12.420Z,28.63
2023-01-09T13:35:55.722Z,27.83
2023-01-09T13:38:31.010Z,29.90
2023-01-09T13:41:34.311Z,27.40
2023-01-09T13:44:08.093Z,33.13
2023-01-09T13:46:43.823Z,29.98
2023-01-09T13:50:09.567Z,31.02
2023-01-09T13:52:43.336Z,27.58
2023-01-09T13:55:15.269Z,31.92
2023-01-09T13:58:05.093Z,32.20
2023-01-09T14:00:37.328Z,27.27
2023-01-09T14:03:39.211Z,29.10
2023-01-09T14:06:14.537Z,30.52
2023-01-09T14:08:48.284Z,34.00
2023-01-09T14:11:22.814Z,31.35
2023-01-09T14:14:02.098Z,29.48
2023-01-09T14:16:36.436Z,32.17
2023-01-09T14:19:17.701Z,31.00
2023-01-09T14:21:54.842Z,32.25
2023-01-09T14:24:44.403Z,32.17
2023-01-09T14:27:54.120Z,30.75
2023-01-09T14:30:26.051Z,29.77
2023-01-09T14:33:19.515Z,32.67
2023-01-09T14:36:15.815Z,33.00
2023-01-09T14:39:09.932Z,24.27
2023-01-09T14:42:06.707Z,30.38
2023-01-09T14:44:47.753Z,28.98
2023-01-09T14:47:31.853Z,31.42
2023-01-09T14:50:11.908Z,29.85
2023-01-09T14:52:52.325Z,35.25
2023-01-09T14:55:34.872Z,33.75
2023-01-09T14:58:18.704Z,32.45
2023-01-09T15:01:17.249Z,33.30
2023-01-09T15:03:52.721Z,33.22
2023-01-09T15:06:30.220Z,32.72
2023-01-09T15:09:35.238Z,30.88
2023-01-09T15:12:11.177Z,34.10
2023-01-09T15:14:46.216Z,34.25
2023-01-09T15:17:24.433Z,32.42
2023-01-09T15:19:57.936Z,33.13
2023-01-09T15:22:34.968Z,35.50
2023-01-09T15:25:39.858Z,34.75
2023-01-09T15:28:40.589Z,32.80
2023-01-09T15:31:18.361Z,35.27
2023-01-09T15:33:53.850Z,38.53
2023-01-09T15:36:28.578Z,37.15
2023-01-09T15:39:00.800Z,36.05
2023-01-09T15:41:51.495Z,34.78
2023-01-09T15:44:26.731Z,32.78
2023-01-09T15:47:00.764Z,33.53
2023-01-09T15:49:34.189Z,31.38
2023-01-09T15:52:12.205Z,39.22
2023-01-09T15:54:49.516Z,37.33
2023-01-09T15:57:27.768Z,38.33
2023-01-09T16:00:33.788Z,38.13
2023-01-09T16:03:17.742Z,38.47
2023-01-09T16:05:51.782Z,36.85
2023-01-09T16:08:34.693Z,33.90
2023-01-09T16:11:22.701Z,36.38
2023-01-09T16:13:57.362Z,32.85
2023-01-09T16:16:34.066Z,40.08
2023-01-09T16:19:06.547Z,36.00
2023-01-09T16:21:38.794Z,40.15
2023-01-09T16:24:16.975Z,33.47
2023-01-09T16:26:52.963Z,33.20
2023-01-09T16:29:36.146Z,41.88
2023-01-09T16:32:19.879Z,41.85
2023-01-09T16:34:57.497Z,37.80
2023-01-09T16:37:29.895Z,39.15
2023-01-09T16:40:23.220Z,36.67
2023-01-09T16:43:03.763Z,34.75
2023-01-09T16:45:40.215Z,39.25
2023-01-09T16:48:16.024Z,36.03
2023-01-09T16:50:48.057Z,38.88
2023-01-09T16:53:32.281Z,35.10
2023-01-09T16:56:04.645Z,35.90
2023-01-09T16:58:36.750Z,40.17
2023-01-09T17:01:10.743Z,37.88
2023-01-09T17:03:44.197Z,36.22
2023-01-09T17:06:19.398Z,34.15
2023-01-09T17:08:51.966Z,41.08
2023-01-09T17:11:30.594Z,39.90
2023-01-09T17:14:02.790Z,36.92
2023-01-09T17:16:38.762Z,34.03
2023-01-09T17:19:18.069Z,35.80
2023-01-09T17:21:50.119Z,33.72
2023-01-09T17:24:40.927Z,33.83
2023-01-09T17:30:17.629Z,30.63
2023-01-09T17:32:50.121Z,31.90
2023-01-09T17:35:21.989Z,36.08
2023-01-09T17:37:54.003Z,37.15
2023-01-09T17:40:27.753Z,38.15
2023-01-09T17:42:59.726Z,32.55
2023-01-09T17:45:31.677Z,34.70
2023-01-09T17:48:03.845Z,33.60
2023-01-09T17:50:36.750Z,31.13
2023-01-09T17:53:08.750Z,31.83
2023-01-09T17:55:42.177Z,35.97
2023-01-09T17:58:40.477Z,38.03
2023-01-09T18:01:14.883Z,38.85
2023-01-09T18:03:49.232Z,44.38
2023-01-09T18:06:22.689Z,44.30
2023-01-09T18:08:57.288Z,44.85
2023-01-09T18:11:30.313Z,57.22
2023-01-09T18:14:02.265Z,58.63
2023-01-09T18:16:34.823Z,62.55
2023-01-09T18:19:07.055Z,41.25
2023-01-09T18:21:38.970Z,39.85
2023-01-09T18:24:10.927Z,48.08
2023-01-09T18:26:43.079Z,42.45
2023-01-09T18:29:15.571Z,45.45
2023-01-09T18:31:48.452Z,47.47
2023-01-09T18:34:20.552Z,54.33
2023-01-09T18:36:52.499Z,61.13
2023-01-09T18:39:24.620Z,57.08
2023-01-09T18:41:56.609Z,53.30
2023-01-09T18:44:28.631Z,47.53
2023-01-09T18:47:02.006Z,47.90
2023-01-09T18:49:34.057Z,52.15
2023-01-09T18:52:07.631Z,45.97
2023-01-09T18:54:39.932Z,42.85
2023-01-09T18:57:12.423Z,35.70
2023-01-09T18:59:44.376Z,36.08
2023-01-09T19:02:20.431Z,37.17
2023-01-09T19:04:53.096Z,37.30
2023-01-09T19:07:25.066Z,38.60
2023-01-09T19:09:56.975Z,38.75
2023-01-09T19:12:28.897Z,42.85
2023-01-09T19:15:00.880Z,40.85
2023-01-09T19:17:33.721Z,42.03
2023-01-09T19:20:07.198Z,40.38
2023-01-09T19:22:39.331Z,39.47
2023-01-09T19:25:12.740Z,37.45
2023-01-09T19:27:44.678Z,36.97
2023-01-09T19:30:17.100Z,35.40
2023-01-09T19:32:49.105Z,36.45
2023-01-09T19:35:21.073Z,37.38
2023-01-09T19:37:53.017Z,40.20
2023-01-09T19:40:25.919Z,43.63
2023-01-09T19:42:58.405Z,47.50
2023-01-09T19:45:30.372Z,43.17
2023-01-09T19:48:02.379Z,49.25
2023-01-09T19:50:34.344Z,50.90
2023-01-09T19:53:06.312Z,44.03
2023-01-09T19:55:38.835Z,58.15
2023-01-09T19:58:11.436Z,50.88
2023-01-09T20:00:43.814Z,50.33
2023-01-09T20:03:15.795Z,52.10
2023-01-09T20:05:47.767Z,40.08
2023-01-09T20:08:19.760Z,40.63
2023-01-09T20:10:51.690Z,46.45
2023-01-09T20:13:23.728Z,40.28
2023-01-09T20:15:58.767Z,40.03
2023-01-09T20:18:32.657Z,38.88
2023-01-09T20:21:05.023Z,45.72
2023-01-09T20:23:37.915Z,50.50
2023-01-09T20:26:09.860Z,50.28
2023-01-09T20:28:41.811Z,45.65
2023-01-09T20:31:16.778Z,43.47
2023-01-09T20:33:51.120Z,39.92
2023-01-09T20:36:27.845Z,39.63
2023-01-09T20:39:02.119Z,38.55
2023-01-09T20:41:34.542Z,40.13
2023-01-09T20:44:09.977Z,37.50
2023-01-09T20:46:45.164Z,38.25
2023-01-09T20:49:20.911Z,34.75
2023-01-09T20:51:53.349Z,43.83
2023-01-09T20:54:25.568Z,43.20
2023-01-09T20:56:57.582Z,37.40
2023-01-09T20:59:29.726Z,33.45
2023-01-09T21:02:01.653Z,35.33
2023-01-09T21:04:33.735Z,33.17
2023-01-09T21:07:05.658Z,39.78
2023-01-09T21:09:37.615Z,39.80
2023-01-09T21:12:28.925Z,43.55
2023-01-09T21:15:11.985Z,37.40
2023-01-09T21:17:44.548Z,36.03
2023-01-09T21:20:16.569Z,36.65
2023-01-09T21:22:49.659Z,40.65
2023-01-09T21:25:21.536Z,46.35
2023-01-09T21:27:53.530Z,55.97
2023-01-09T21:30:25.566Z,48.50
2023-01-09T21:32:57.555Z,44.65
2023-01-09T21:35:29.525Z,49.15
2023-01-09T21:38:02.502Z,40.05
2023-01-09T21:40:34.486Z,44.85
2023-01-09T21:43:25.047Z,43.75
2023-01-09T21:46:19.826Z,41.20
2023-01-09T21:48:51.826Z,40.17
2023-01-09T21:51:24.012Z,42.65
2023-01-09T21:53:56.009Z,37.63
2023-01-09T21:56:28.171Z,39.95
2023-01-09T21:59:00.401Z,35.53
2023-01-09T22:01:32.420Z,36.63
2023-01-09T22:04:04.557Z,36.17
2023-01-09T22:06:36.667Z,43.22
2023-01-09T22:09:09.275Z,43.75
2023-01-09T22:11:42.198Z,38.63
2023-01-09T22:14:17.232Z,37.80
2023-01-09T22:16:49.177Z,38.88
2023-01-09T22:19:21.392Z,37.50
2023-01-09T22:21:53.376Z,39.25
2023-01-09T22:24:25.289Z,36.55
2023-01-09T22:26:57.234Z,37.70
2023-01-09T22:29:29.373Z,37.85
2023-01-09T22:32:01.614Z,36.40
2023-01-09T22:34:33.835Z,38.63
2023-01-09T22:37:08.557Z,37.33
2023-01-09T22:39:40.507Z,38.72
2023-01-09T22:42:12.457Z,37.13
2023-01-09T22:44:44.401Z,43.20
2023-01-09T22:47:18.456Z,38.08
2023-01-09T22:49:53.060Z,38.03
2023-01-09T22:52:25.426Z,40.53
2023-01-09T22:54:57.390Z,42.65
2023-01-09T22:57:29.495Z,43.10
2023-01-09T23:00:01.503Z,40.55
2023-01-09T23:02:33.613Z,40.10
2023-01-09T23:05:06.199Z,42.50
2023-01-09T23:07:38.150Z,43.13
2023-01-09T23:10:10.933Z,41.35
2023-01-09T23:12:47.979Z,41.28
2023-01-09T23:15:19.971Z,40.47
2023-01-09T23:17:52.134Z,45.40
2023-01-09T23:20:24.267Z,41.67
2023-01-09T23:22:58.305Z,41.53
2023-01-09T23:25:31.413Z,41.53
2023-01-09T23:28:21.533Z,39.30
2023-01-09T23:31:01.368Z,39.58
2023-01-09T23:33:46.420Z,42.63
2023-01-09T23:36:22.818Z,40.95
2023-01-09T23:38:57.509Z,41.97
2023-01-09T23:41:49.774Z,41.30
2023-01-09T23:44:21.792Z,37.28
2023-01-09T23:46:54.208Z,37.95
2023-01-09T23:49:29.235Z,38.40
2023-01-09T23:52:08.936Z,40.50
2023-01-09T23:54:44.042Z,44.33
2023-01-09T23:57:16.011Z,44.45
2023-01-09T23:59:49.369Z,45.35
